createdAt,value
2022-11-15T00:02:47.476Z,99789.16
2022-11-15T00:05:40.324Z,99789.50
2022-11-15T00:08:37.870Z,99784.91
2022-11-15T00:11:28.499Z,99771.59
2022-11-15T00:14:21.986Z,99771.13
2022-11-15T00:17:12.878Z,99775.16
2022-11-15T00:20:00.959Z,99771.03
2022-11-15T00:22:52.212Z,99774.38
2022-11-15T00:25:45.158Z,99768.16
2022-11-15T00:28:42.652Z,99774.03
2022-11-15T00:31:31.075Z,99773.78
2022-11-15T00:34:35.300Z,99776.09
2022-11-15T00:37:30.444Z,99764.38
2022-11-15T00:40:19.046Z,99763.06
2022-11-15T00:43:13.428Z,99755.34
2022-11-15T00:46:06.512Z,99757.63
2022-11-15T00:48:55.362Z,99756.88
2022-11-15T00:51:44.032Z,99755.81
2022-11-15T00:54:38.972Z,99743.03
2022-11-15T00:57:32.167Z,99752.66
2022-11-15T01:00:24.105Z,99742.91
2022-11-15T01:03:13.134Z,99739.75
2022-11-15T01:06:04.964Z,99728.31
2022-11-15T01:08:54.112Z,99733.38
2022-11-15T01:11:43.072Z,99729.53
2022-11-15T01:14:39.932Z,99731.78
2022-11-15T01:17:33.583Z,99732.53
2022-11-15T01:20:22.756Z,99720.69
2022-11-15T01:23:11.702Z,99717.22
2022-11-15T01:26:01.482Z,99721.69
2022-11-15T01:28:55.302Z,99721.19
2022-11-15T01:31:51.335Z,99721.44
2022-11-15T01:34:55.004Z,99717.09
2022-11-15T01:37:46.379Z,99715.16
2022-11-15T01:40:36.515Z,99723.34
2022-11-15T01:43:34.542Z,99725.31
2022-11-15T01:46:46.274Z,99703.56
2022-11-15T01:49:38.337Z,99712.72
2022-11-15T01:52:30.725Z,99711.78
2022-11-15T01:55:24.480Z,99707.16
2022-11-15T01:58:21.120Z,99716.44
2022-11-15T02:01:14.845Z,99702.34
2022-11-15T02:04:09.248Z,99705.25
2022-11-15T02:06:59.775Z,99703.91
2022-11-15T02:09:55.194Z,99703.81
2022-11-15T02:12:46.850Z,99712.25
2022-11-15T02:15:42.180Z,99712.03
2022-11-15T02:18:40.288Z,99712.13
2022-11-15T02:21:39.180Z,99704.06
2022-11-15T02:25:18.504Z,99700.69
2022-11-15T02:28:34.463Z,99700.19
2022-11-15T02:31:33.098Z,99700.06
2022-11-15T02:34:31.007Z,99707.19
2022-11-15T02:37:36.499Z,99704.16
2022-11-15T02:40:32.590Z,99711.78
2022-11-15T02:43:47.577Z,99716.47
2022-11-15T02:47:02.710Z,99704.63
2022-11-15T02:49:52.285Z,99713.81
2022-11-15T02:52:40.069Z,99709.94
2022-11-15T02:55:32.501Z,99711.53
2022-11-15T02:59:04.793Z,99707.56
2022-11-15T03:02:06.952Z,99702.25
2022-11-15T03:05:02.183Z,99702.38
2022-11-15T03:08:02.104Z,99703.09
2022-11-15T03:11:07.481Z,99698.84
2022-11-15T03:14:02.713Z,99690.19
2022-11-15T03:17:00.631Z,99696.44
2022-11-15T03:19:57.522Z,99686.66
2022-11-15T03:22:48.570Z,99692.19
2022-11-15T03:25:48.251Z,99683.16
2022-11-15T03:28:51.166Z,99689.44
2022-11-15T03:31:51.926Z,99684.25
2022-11-15T03:35:00.284Z,99676.78
2022-11-15T03:37:52.881Z,99679.56
2022-11-15T03:40:45.733Z,99672.41
2022-11-15T03:43:44.519Z,99667.25
2022-11-15T03:46:39.490Z,99665.31
2022-11-15T03:49:34.210Z,99656.84
2022-11-15T03:52:37.816Z,99661.44
2022-11-15T03:55:26.598Z,99650.84
2022-11-15T03:58:23.577Z,99644.78
2022-11-15T04:01:19.287Z,99640.56
2022-11-15T04:04:08.353Z,99646.34
2022-11-15T04:07:07.213Z,99644.69
2022-11-15T04:10:10.505Z,99650.69
2022-11-15T04:13:00.374Z,99645.38
2022-11-15T04:15:51.586Z,99640.31
2022-11-15T04:18:42.229Z,99640.69
2022-11-15T04:21:49.575Z,99641.78
2022-11-15T04:24:39.802Z,99628.47
2022-11-15T04:27:34.966Z,99622.91
2022-11-15T04:30:22.265Z,99621.03
2022-11-15T04:33:11.203Z,99631.88
2022-11-15T04:36:20.633Z,99638.50
2022-11-15T04:39:09.723Z,99634.06
2022-11-15T04:41:58.554Z,99629.47
2022-11-15T04:44:54.976Z,99617.63
2022-11-15T04:47:45.952Z,99613.75
2022-11-15T04:50:39.696Z,99610.66
2022-11-15T04:53:30.852Z,99617.50
2022-11-15T04:56:28.662Z,99605.56
2022-11-15T04:59:16.523Z,99608.59
2022-11-15T05:02:23.456Z,99598.44
2022-11-15T05:05:15.452Z,99603.38
2022-11-15T05:08:03.464Z,99601.34
2022-11-15T05:10:51.434Z,99601.09
2022-11-15T05:13:44.625Z,99607.09
2022-11-15T05:16:34.476Z,99608.81
2022-11-15T05:19:37.877Z,99598.75
2022-11-15T05:22:38.529Z,99589.09
2022-11-15T05:25:30.968Z,99592.72
2022-11-15T05:28:21.611Z,99585.75
2022-11-15T05:31:11.813Z,99589.16
2022-11-15T05:34:11.386Z,99598.19
2022-11-15T05:37:03.027Z,99584.44
2022-11-15T05:39:53.404Z,99589.41
2022-11-15T05:42:47.082Z,99587.84
2022-11-15T05:45:45.499Z,99587.22
2022-11-15T05:48:36.994Z,99587.00
2022-11-15T05:51:26.847Z,99584.06
2022-11-15T05:54:22.209Z,99583.28
2022-11-15T05:57:11.547Z,99579.84
2022-11-15T06:00:01.147Z,99576.75
2022-11-15T06:02:51.948Z,99582.72
2022-11-15T06:05:41.284Z,99580.94
2022-11-15T06:08:38.663Z,99583.56
2022-11-15T06:11:32.118Z,99587.75
2022-11-15T06:14:19.739Z,99583.56
2022-11-15T06:17:11.538Z,99584.97
2022-11-15T06:20:00.272Z,99584.72
2022-11-15T06:22:55.389Z,99578.81
2022-11-15T06:25:43.128Z,99587.63
2022-11-15T06:28:37.315Z,99593.28
2022-11-15T06:31:35.174Z,99588.72
2022-11-15T06:34:25.708Z,99582.81
2022-11-15T06:37:19.488Z,99586.03
2022-11-15T06:40:20.982Z,99592.47
2022-11-15T06:43:09.397Z,99592.81
2022-11-15T06:46:05.105Z,99590.72
2022-11-15T06:48:53.425Z,99592.34
2022-11-15T06:51:43.693Z,99594.38
2022-11-15T06:54:41.945Z,99591.84
2022-11-15T06:57:32.075Z,99605.03
2022-11-15T07:00:21.932Z,99604.06
2022-11-15T07:03:10.194Z,99600.22
2022-11-15T07:06:01.553Z,99603.72
2022-11-15T07:08:54.178Z,99599.94
2022-11-15T07:11:40.579Z,99597.53
2022-11-15T07:14:27.186Z,99591.16
2022-11-15T07:17:14.012Z,99588.88
2022-11-15T07:20:02.013Z,99590.22
2022-11-15T07:22:51.349Z,99589.97
2022-11-15T07:25:37.785Z,99592.97
2022-11-15T07:28:24.350Z,99583.69
2022-11-15T07:31:11.373Z,99578.13
2022-11-15T07:33:57.885Z,99573.31
2022-11-15T07:36:45.958Z,99581.13
2022-11-15T07:39:32.704Z,99579.19
2022-11-15T07:42:36.394Z,99573.25
2022-11-15T07:45:24.004Z,99572.19
2022-11-15T07:48:10.685Z,99573.06
2022-11-15T07:50:57.045Z,99576.91
2022-11-15T07:53:48.152Z,99578.88
2022-11-15T07:56:34.552Z,99573.75
2022-11-15T07:59:21.544Z,99569.28
2022-11-15T08:02:07.989Z,99570.84
2022-11-15T08:04:54.412Z,99574.63
2022-11-15T08:07:41.259Z,99570.34
2022-11-15T08:10:29.656Z,99569.94
2022-11-15T08:13:17.366Z,99562.88
2022-11-15T08:16:06.505Z,99565.81
2022-11-15T08:18:54.786Z,99556.94
2022-11-15T08:21:41.266Z,99564.47
2022-11-15T08:24:28.173Z,99563.09
2022-11-15T08:27:16.873Z,99568.69
2022-11-15T08:30:03.756Z,99558.91
2022-11-15T08:32:54.117Z,99558.66
2022-11-15T08:35:40.728Z,99561.16
2022-11-15T08:38:27.171Z,99555.59
2022-11-15T08:41:16.645Z,99546.69
2022-11-15T08:44:04.569Z,99556.66
2022-11-15T08:46:52.730Z,99557.56
2022-11-15T08:49:39.421Z,99559.97
2022-11-15T08:52:26.234Z,99563.34
2022-11-15T08:55:12.557Z,99565.41
2022-11-15T08:57:59.734Z,99554.59
2022-11-15T09:00:47.515Z,99553.81
2022-11-15T09:03:33.838Z,99553.97
2022-11-15T09:06:20.688Z,99549.59
2022-11-15T09:09:07.477Z,99558.38
2022-11-15T09:11:58.034Z,99550.13
2022-11-15T09:14:47.540Z,99556.94
2022-11-15T09:17:35.589Z,99546.22
2022-11-15T09:20:22.492Z,99546.06
2022-11-15T09:23:09.173Z,99526.84
2022-11-15T09:26:01.131Z,99532.03
2022-11-15T09:28:47.781Z,99535.34
2022-11-15T09:31:35.384Z,99542.06
2022-11-15T09:34:23.679Z,99533.78
2022-11-15T09:37:10.257Z,99524.72
2022-11-15T09:39:56.882Z,99514.00
2022-11-15T09:42:57.453Z,99509.19
2022-11-15T09:45:53.574Z,99502.81
2022-11-15T09:48:55.140Z,99500.16
2022-11-15T09:51:48.024Z,99491.06
2022-11-15T09:54:52.142Z,99498.53
2022-11-15T09:57:20.477Z,99491.53
2022-11-15T10:03:10.849Z,99486.09
2022-11-15T10:05:42.275Z,99480.50
2022-11-15T10:08:30.257Z,99489.31
2022-11-15T10:11:30.611Z,99483.56
2022-11-15T10:13:50.480Z,99484.75
2022-11-15T10:16:37.919Z,99472.81
2022-11-15T10:19:11.240Z,99468.50
2022-11-15T10:21:46.209Z,99458.84
2022-11-15T10:24:21.621Z,99448.50
2022-11-15T10:26:52.501Z,99455.34
2022-11-15T10:29:26.448Z,99454.09
2022-11-15T10:31:55.371Z,99448.00
2022-11-15T10:34:25.983Z,99445.13
2022-11-15T10:36:58.072Z,99423.31
2022-11-15T10:39:28.376Z,99421.50
2022-11-15T10:41:56.875Z,99430.28
2022-11-15T10:44:29.678Z,99425.59
2022-11-15T10:47:26.808Z,99419.28
2022-11-15T10:50:00.140Z,99418.44
2022-11-15T10:52:29.230Z,99418.16
2022-11-15T10:55:02.503Z,99410.91
2022-11-15T10:57:32.361Z,99405.03
2022-11-15T11:00:02.789Z,99399.56
2022-11-15T11:02:33.545Z,99400.31
2022-11-15T11:05:02.305Z,99399.50
2022-11-15T11:07:32.773Z,99401.13
2022-11-15T11:10:17.722Z,99398.22
2022-11-15T11:12:54.517Z,99393.44
2022-11-15T11:15:25.158Z,99391.25
2022-11-15T11:18:16.343Z,99383.06
2022-11-15T11:20:48.250Z,99369.19
2022-11-15T11:23:28.341Z,99369.94
2022-11-15T11:26:06.123Z,99373.91
2022-11-15T11:28:42.121Z,99365.94
2022-11-15T11:31:22.679Z,99365.91
2022-11-15T11:33:59.669Z,99360.00
2022-11-15T11:36:31.401Z,99357.63
2022-11-15T11:39:07.046Z,99358.22
2022-11-15T11:41:47.677Z,99350.13
2022-11-15T11:44:27.591Z,99341.56
2022-11-15T11:46:58.653Z,99347.50
2022-11-15T11:49:32.898Z,99337.13
2022-11-15T11:52:05.668Z,99334.63
2022-11-15T11:54:39.558Z,99327.75
2022-11-15T11:57:15.412Z,99325.22
2022-11-15T11:59:46.130Z,99320.94
2022-11-15T12:02:18.013Z,99315.59
2022-11-15T12:04:53.084Z,99310.25
2022-11-15T12:07:25.801Z,99304.63
2022-11-15T12:09:57.595Z,99306.47
2022-11-15T12:12:31.926Z,99305.94
2022-11-15T12:15:03.067Z,99305.34
2022-11-15T12:17:33.091Z,99297.00
2022-11-15T12:20:02.144Z,99288.03
2022-11-15T12:22:38.142Z,99280.03
2022-11-15T12:25:09.785Z,99269.53
2022-11-15T12:27:43.055Z,99268.69
2022-11-15T12:30:14.157Z,99267.72
2022-11-15T12:32:58.123Z,99254.28
2022-11-15T12:35:29.796Z,99253.44
2022-11-15T12:37:58.160Z,99259.03
2022-11-15T12:40:28.600Z,99252.59
2022-11-15T12:43:05.756Z,99257.38
2022-11-15T12:45:35.720Z,99254.56
2022-11-15T12:48:57.470Z,99252.06
2022-11-15T12:51:58.699Z,99250.78
2022-11-15T12:54:55.571Z,99249.50
2022-11-15T12:57:43.681Z,99243.06
2022-11-15T13:00:52.995Z,99232.56
2022-11-15T13:03:31.389Z,99234.41
2022-11-15T13:06:35.447Z,99217.31
2022-11-15T13:09:03.642Z,99223.19
2022-11-15T13:11:46.813Z,99217.03
2022-11-15T13:14:44.361Z,99216.44
2022-11-15T13:17:25.076Z,99209.72
2022-11-15T13:19:58.178Z,99214.63
2022-11-15T13:22:44.190Z,99209.16
2022-11-15T13:25:21.343Z,99203.88
2022-11-15T13:27:55.369Z,99204.44
2022-11-15T13:30:24.789Z,99204.84
2022-11-15T13:32:55.779Z,99195.59
2022-11-15T13:35:25.786Z,99196.03
2022-11-15T13:37:54.580Z,99199.94
2022-11-15T13:40:25.740Z,99191.78
2022-11-15T13:42:53.833Z,99196.16
2022-11-15T13:45:22.144Z,99192.63
2022-11-15T13:48:01.788Z,99188.16
2022-11-15T13:50:34.457Z,99189.84
2022-11-15T13:53:05.148Z,99180.41
2022-11-15T13:55:34.534Z,99178.72
2022-11-15T13:58:07.350Z,99172.72
2022-11-15T14:00:38.883Z,99167.16
2022-11-15T14:03:15.544Z,99164.88
2022-11-15T14:05:44.016Z,99153.38
2022-11-15T14:08:25.069Z,99144.84
2022-11-15T14:11:09.727Z,99147.06
2022-11-15T14:13:37.952Z,99148.03
2022-11-15T14:16:17.586Z,99145.38
2022-11-15T14:18:56.426Z,99139.53
2022-11-15T14:21:24.456Z,99143.78
2022-11-15T14:23:53.807Z,99145.44
2022-11-15T14:26:30.537Z,99136.13
2022-11-15T14:28:58.824Z,99138.09
2022-11-15T14:31:27.070Z,99144.41
2022-11-15T14:33:56.548Z,99139.34
2022-11-15T14:36:24.599Z,99140.78
2022-11-15T14:38:55.282Z,99143.00
2022-11-15T14:41:24.921Z,99138.75
2022-11-15T14:43:55.023Z,99140.69
2022-11-15T14:46:23.113Z,99135.16
2022-11-15T14:48:53.538Z,99132.94
2022-11-15T14:51:22.957Z,99137.81
2022-11-15T14:53:56.340Z,99132.63
2022-11-15T14:56:24.782Z,99125.66
2022-11-15T14:58:55.949Z,99130.66
2022-11-15T15:01:26.301Z,99133.28
2022-11-15T15:03:56.858Z,99121.00
2022-11-15T15:06:26.797Z,99121.25
2022-11-15T15:08:54.878Z,99109.91
2022-11-15T15:11:24.934Z,99114.03
2022-11-15T15:13:57.462Z,99109.97
2022-11-15T15:16:25.765Z,99107.75
2022-11-15T15:18:54.448Z,99114.16
2022-11-15T15:21:24.378Z,99109.34
2022-11-15T15:23:56.077Z,99115.16
2022-11-15T15:26:24.679Z,99117.53
2022-11-15T15:28:53.600Z,99113.06
2022-11-15T15:31:21.782Z,99112.22
2022-11-15T15:33:50.555Z,99114.25
2022-11-15T15:36:20.379Z,99104.94
2022-11-15T15:38:56.069Z,99104.28
2022-11-15T15:41:25.727Z,99103.94
2022-11-15T15:43:54.104Z,99094.72
2022-11-15T15:46:22.368Z,99071.47
2022-11-15T15:48:52.764Z,99077.66
2022-11-15T15:51:21.115Z,99087.91
2022-11-15T15:53:53.725Z,99084.88
2022-11-15T15:56:21.802Z,99070.56
2022-11-15T15:58:54.158Z,99075.66
2022-11-15T16:01:22.991Z,99071.59
2022-11-15T16:03:53.221Z,99075.16
2022-11-15T16:06:40.301Z,99076.59
2022-11-15T16:09:15.012Z,99066.16
2022-11-15T16:11:44.379Z,99078.25
2022-11-15T16:14:16.422Z,99072.09
2022-11-15T16:16:44.786Z,99068.41
2022-11-15T16:19:13.848Z,99067.31
2022-11-15T16:21:42.501Z,99063.66
2022-11-15T16:24:10.902Z,99075.31
2022-11-15T16:26:39.672Z,99067.06
2022-11-15T16:29:10.256Z,99067.06
2022-11-15T16:31:40.021Z,99059.63
2022-11-15T16:34:08.345Z,99070.63
2022-11-15T16:36:37.285Z,99061.78
2022-11-15T16:39:06.344Z,99071.00
2022-11-15T16:41:34.914Z,99070.28
2022-11-15T16:44:09.304Z,99069.47
2022-11-15T16:46:40.666Z,99071.44
2022-11-15T16:49:17.391Z,99072.19
2022-11-15T16:51:47.415Z,99068.44
2022-11-15T16:54:16.430Z,99065.88
2022-11-15T16:56:48.227Z,99060.06
2022-11-15T16:59:20.337Z,99055.38
2022-11-15T17:01:57.979Z,99048.69
2022-11-15T17:04:34.065Z,99058.38
2022-11-15T17:07:02.534Z,99063.44
2022-11-15T17:09:33.180Z,99048.13
2022-11-15T17:12:03.776Z,99057.97
2022-11-15T17:14:32.285Z,99057.50
2022-11-15T17:17:01.047Z,99059.31
2022-11-15T17:19:31.061Z,99061.09
2022-11-15T17:22:00.006Z,99052.19
2022-11-15T17:24:28.604Z,99051.94
2022-11-15T17:26:59.719Z,99045.03
2022-11-15T17:29:28.682Z,99049.22
2022-11-15T17:31:58.651Z,99054.44
2022-11-15T17:34:28.496Z,99038.88
2022-11-15T17:37:00.473Z,99030.53
2022-11-15T17:39:28.912Z,99035.25
2022-11-15T17:42:01.430Z,99029.41
2022-11-15T17:44:30.543Z,99035.22
2022-11-15T17:47:01.814Z,99030.63
2022-11-15T17:49:30.417Z,99021.94
2022-11-15T17:52:02.133Z,99015.41
2022-11-15T17:54:31.813Z,99021.28
2022-11-15T17:57:02.855Z,99014.31
2022-11-15T17:59:34.598Z,99012.41
2022-11-15T18:02:03.744Z,99008.41
2022-11-15T18:04:33.545Z,99003.88
2022-11-15T18:07:03.559Z,99007.16
2022-11-15T18:09:32.577Z,98996.75
2022-11-15T18:12:01.592Z,98996.91
2022-11-15T18:14:30.863Z,98989.66
2022-11-15T18:16:59.491Z,98983.03
2022-11-15T18:19:31.530Z,98989.41
2022-11-15T18:22:01.481Z,98981.56
2022-11-15T18:24:33.578Z,98979.16
2022-11-15T18:27:07.421Z,98981.81
2022-11-15T18:29:38.168Z,98980.00
2022-11-15T18:32:15.625Z,98986.59
2022-11-15T18:34:44.376Z,98979.84
2022-11-15T18:37:13.452Z,98979.06
2022-11-15T18:39:53.949Z,98978.47
2022-11-15T18:42:26.002Z,98970.91
2022-11-15T18:44:56.105Z,98964.53
2022-11-15T18:47:24.729Z,98972.28
2022-11-15T18:49:58.559Z,98969.84
2022-11-15T18:52:28.084Z,98974.84
2022-11-15T18:55:07.702Z,98979.31
2022-11-15T18:57:36.649Z,98966.88
2022-11-15T19:00:11.546Z,98972.91
2022-11-15T19:02:40.776Z,98975.16
2022-11-15T19:05:10.677Z,98971.72
2022-11-15T19:07:41.759Z,98962.78
2022-11-15T19:10:13.002Z,98962.00
2022-11-15T19:12:41.937Z,98960.56
2022-11-15T19:15:12.890Z,98948.47
2022-11-15T19:17:44.090Z,98956.22
2022-11-15T19:20:13.831Z,98952.56
2022-11-15T19:22:46.195Z,98952.84
2022-11-15T19:25:20.587Z,98949.41
2022-11-15T19:27:56.235Z,98957.00
2022-11-15T19:30:28.256Z,98948.84
2022-11-15T19:32:56.877Z,98953.03
2022-11-15T19:35:26.245Z,98961.13
2022-11-15T19:37:55.930Z,98959.06
2022-11-15T19:40:37.446Z,98951.31
2022-11-15T19:43:08.617Z,98957.72
2022-11-15T19:45:38.706Z,98960.53
2022-11-15T19:48:08.168Z,98964.97
2022-11-15T19:50:45.647Z,98961.63
2022-11-15T19:53:15.952Z,98957.56
2022-11-15T19:56:03.267Z,98956.31
2022-11-15T19:58:45.089Z,98951.31
2022-11-15T20:01:24.037Z,98947.72
2022-11-15T20:03:57.696Z,98939.72
2022-11-15T20:06:30.859Z,98933.81
2022-11-15T20:09:02.950Z,98927.88
2022-11-15T20:11:34.795Z,98921.72
2022-11-15T20:14:05.850Z,98922.69
2022-11-15T20:16:35.277Z,98911.91
2022-11-15T20:19:04.094Z,98906.22
2022-11-15T20:21:36.718Z,98907.34
2022-11-15T20:24:06.074Z,98915.94
2022-11-15T20:26:39.389Z,98913.09
2022-11-15T20:29:10.163Z,98910.41
2022-11-15T20:31:40.204Z,98905.59
2022-11-15T20:34:10.929Z,98898.59
2022-11-15T20:36:40.274Z,98881.50
2022-11-15T20:39:10.500Z,98879.28
2022-11-15T20:41:40.817Z,98884.69
2022-11-15T20:44:11.671Z,98871.06
2022-11-15T20:46:41.041Z,98878.34
2022-11-15T20:49:12.708Z,98881.41
2022-11-15T20:51:41.603Z,98873.56
2022-11-15T20:54:11.277Z,98881.78
2022-11-15T20:56:42.290Z,98882.78
2022-11-15T20:59:16.284Z,98877.69
2022-11-15T21:01:47.594Z,98886.81
2022-11-15T21:04:18.350Z,98888.53
2022-11-15T21:06:48.969Z,98879.94
2022-11-15T21:09:39.744Z,98872.50
2022-11-15T21:12:15.371Z,98882.41
2022-11-15T21:14:46.623Z,98879.44
2022-11-15T21:17:16.211Z,98872.19
2022-11-15T21:19:45.534Z,98877.22
2022-11-15T21:22:15.432Z,98881.09
2022-11-15T21:24:43.612Z,98873.88
2022-11-15T21:27:16.226Z,98871.75
2022-11-15T21:29:45.742Z,98863.69
2022-11-15T21:32:14.011Z,98873.56
2022-11-15T21:34:42.321Z,98871.81
2022-11-15T21:37:12.367Z,98870.59
2022-11-15T21:39:40.616Z,98871.59
2022-11-15T21:42:11.900Z,98868.50
2022-11-15T21:44:41.336Z,98872.25
2022-11-15T21:47:10.313Z,98867.25
2022-11-15T21:49:38.371Z,98862.16
2022-11-15T21:52:07.327Z,98855.03
2022-11-15T21:54:35.385Z,98850.22
2022-11-15T21:57:04.452Z,98856.16
2022-11-15T21:59:32.546Z,98852.81
2022-11-15T22:02:15.241Z,98848.63
2022-11-15T22:04:46.610Z,98841.72
2022-11-15T22:07:14.812Z,98841.34
2022-11-15T22:09:44.670Z,98830.00
2022-11-15T22:12:15.429Z,98841.94
2022-11-15T22:14:43.635Z,98837.91
2022-11-15T22:17:16.042Z,98837.75
2022-11-15T22:19:52.621Z,98840.13
2022-11-15T22:22:21.480Z,98841.19
2022-11-15T22:24:52.793Z,98833.88
2022-11-15T22:27:23.615Z,98835.09
2022-11-15T22:29:53.292Z,98830.44
2022-11-15T22:32:23.924Z,98829.03
2022-11-15T22:34:55.260Z,98827.47
2022-11-15T22:37:24.438Z,98822.84
2022-11-15T22:39:53.667Z,98815.88
2022-11-15T22:42:23.928Z,98803.00
2022-11-15T22:44:52.991Z,98812.50
2022-11-15T22:47:23.711Z,98803.22
2022-11-15T22:49:57.524Z,98807.13
2022-11-15T22:52:26.946Z,98800.50
2022-11-15T22:54:55.000Z,98798.81
2022-11-15T22:57:25.658Z,98793.34
2022-11-15T22:59:55.137Z,98800.81
2022-11-15T23:02:23.420Z,98799.59
2022-11-15T23:04:54.226Z,98809.16
2022-11-15T23:07:26.826Z,98796.47
2022-11-15T23:10:15.525Z,98786.91
2022-11-15T23:13:01.361Z,98791.16
2022-11-15T23:15:55.333Z,98787.06
2022-11-15T23:18:23.822Z,98783.03
2022-11-15T23:20:53.386Z,98777.69
2022-11-15T23:23:24.424Z,98777.47
2022-11-15T23:25:59.481Z,98775.56
2022-11-15T23:28:30.076Z,98775.25
2022-11-15T23:31:21.400Z,98773.06
2022-11-15T23:33:58.592Z,98768.78
2022-11-15T23:36:27.022Z,98769.47
2022-11-15T23:38:56.939Z,98760.78
2022-11-15T23:41:26.341Z,98756.09
2022-11-15T23:43:57.256Z,98757.38
2022-11-15T23:46:27.215Z,98755.88
2022-11-15T23:48:58.073Z,98754.81
2022-11-15T23:51:26.560Z,98750.16
2022-11-15T23:53:56.036Z,98752.91
2022-11-15T23:56:25.610Z,98743.63
2022-11-15T23:58:56.786Z,98742.59
